Database: COMPET-N - COOP - 3PL - 4PL - CNDOOM

WAD: Doom | Doom 2 | TNT | Plutonia | AV | HR | Scythe | MM | MM2 | Requiem | CE
Category: speed | nmare | max | nm100s | tyson | pacifist | fast | respawn | nomo | misc | built | all
Highscore: ALL | IWAD | PWAD | Country | Continent

< Previous map       Next map >
Remove: wad | map | category | player | allE4M6
MapPlayerTimeDateFilenameCommentsDL
E4M6: Against Thee WickedlyTatsuya Ito1:14.002015-01-07u4m6-114.zip - 950
E4M6: Against Thee WickedlyAnders Johnsen1:38.001999-01-28u4m6-138.zip - 162
E4M6: Against Thee WickedlyAnders Johnsen1:59.001998-07-12u4m6-159.zip - 179
E4M6: Against Thee WickedlySteffen Udluft2:48.001998-04-22u4m6-248.zip - 168
E4M6: Against Thee WickedlyYonatan Donner2:49.001997-02-04u4m6-249.zip - 134
E4M6: Against Thee WickedlyWade Cayton2:52.001996-07-16u4m6-252.zip - 120
E4M6: Against Thee WickedlyVincent Catalaa1:40.002002-03-15n4m6-140.zip - 282
E4M6: Against Thee WickedlyDrew DeVore1:57.002002-03-11n4m6-157.zip - 153
E4M6: Against Thee WickedlyDrew DeVore2:41.002002-03-10n4m6-241.zip - 135
E4M6: Against Thee WickedlyDrew DeVore2:51.002002-03-09n4m6-251.zip - 166
E4M6: Against Thee WickedlyAnders Johnsen3:24.001998-10-03n4m6-324.zip - 155
E4M6: Against Thee WickedlySteffen Udluft4:38.001998-07-27n4m6-438.zip - 153
E4M6: Against Thee WickedlyTatsuya Ito2:47.002015-02-26u4m6-247.zip - 700
E4M6: Against Thee WickedlyDrew DeVore2:56.002002-04-13u4m6-256.zip - 169
E4M6: Against Thee WickedlyRadek Pecka3:28.002001-12-09u4m6-328.zip - 159
E4M6: Against Thee WickedlyChris Ratcliff3:38.002001-06-22u4m6-338.zip - 185
E4M6: Against Thee WickedlyAnders Johnsen3:49.001998-09-05u4m6-349.zip - 155
E4M6: Against Thee WickedlyAnders Johnsen4:17.001998-06-29u4m6-417.zip - 164
E4M6: Against Thee WickedlySteffen Udluft4:44.001998-03-13u4m6-444.zip - 139
E4M6: Against Thee WickedlyYonatan Donner5:11.001997-02-04u4m6-511.zip - 104
E4M6: Against Thee WickedlyWade Cayton5:21.001996-04-20u4m6-521.zip - 98
E4M6: Against Thee WickedlyAndreas Kren8:15.001996-02-09u4m6-815.zip - 107
E4M6: Against Thee WickedlyPaul Falstad8:49.001995-08-23u4m6-849.zip - 132
E4M6: Against Thee WickedlySven Huth11:48.001995-07-09u46-1148.zip - 335
E4M6: Against Thee WickedlyVincent Catalaa1:40.002002-03-15n4m6-140.zip - 277
E4M6: Against Thee WickedlyDrew DeVore1:57.002002-03-11n4m6-157.zip - 178
E4M6: Against Thee WickedlyVincent Catalaa3:58.002000-02-16n4s6-358.zip - 150
E4M6: Against Thee WickedlyAdam Hegyi4:41.001999-07-04n4s6-441.zip - 154
E4M6: Against Thee WickedlyJim Leonard29:24.002003-01-26t4m62924.zip - 292
E4M6: Against Thee WickedlyTatsuya Ito3:14.002015-03-01f4m6-314.zip - 343
E4M6: Against Thee WickedlyAnders Johnsen4:20.001999-06-12f4m6-420.zip - 132
E4M6: Against Thee WickedlySteffen Udluft5:03.001999-06-04f4m6-503.zip - 132
E4M6: Against Thee WickedlySteffen Udluft5:38.001999-05-29f4m6-538.zip - 137
E4M6: Against Thee WickedlyJoe Abene5:50.001999-05-26f4m6-550.zip - 129
E4M6: Against Thee WickedlyEsko Koskimaa6:15.001998-04-17f4m6-615.zip - 172
E4M6: Against Thee WickedlySteffen Udluft6:54.001999-05-24f4m6-654.zip - 121
E4M6: Against Thee WickedlyJoe Abene8:31.001998-11-26f4m6-831.zip - 121
E4M6: Against Thee WickedlySteffen Udluft9:57.001998-01-17f4m6-957.zip - 117
E4M6: Against Thee WickedlyPeo Sjoblom15:17.001996-06-29f4m61517.zip - 114
E4M6: Against Thee WickedlyRadek Pecka2:43.002001-12-09r4m6-243.zip - 301
E4M6: Against Thee WickedlySelim Benabdelkhalek2:47.002001-10-18r4m6-247.zip - 138
E4M6: Against Thee WickedlySteffen Udluft2:59.002001-10-17r4m6-259.zip - 281
E4M6: Against Thee WickedlyChris Ratcliff3:12.002000-09-10r4m6-312.zip - 145
E4M6: Against Thee WickedlySteffen Udluft3:38.001998-04-19r4m6-338.zip - 143
E4M6: Against Thee WickedlySteffen Udluft7:08.001998-01-06r4m6-708.zip - 152
Remove: wad | map | category | player | all